createdAt,value
2022-11-01T00:00:22.555Z,101023.00
2022-11-01T00:02:52.749Z,101022.00
2022-11-01T00:05:23.084Z,101020.00
2022-11-01T00:07:55.841Z,101030.00
2022-11-01T00:10:25.919Z,101016.00
2022-11-01T00:12:56.088Z,100998.00
2022-11-01T00:15:28.849Z,100990.00
2022-11-01T00:17:59.015Z,100992.00
2022-11-01T00:20:29.114Z,100983.00
2022-11-01T00:22:59.629Z,100980.00
2022-11-01T00:25:30.127Z,100983.00
2022-11-01T00:28:00.540Z,100963.00
2022-11-01T00:30:33.685Z,100958.00
2022-11-01T00:33:04.211Z,100965.00
2022-11-01T00:35:36.982Z,100955.00
2022-11-01T00:38:08.253Z,100950.00
2022-11-01T00:40:38.409Z,100940.00
2022-11-01T00:43:08.738Z,100952.00
2022-11-01T00:45:41.851Z,100929.00
2022-11-01T00:48:12.009Z,100912.00
2022-11-01T00:50:42.582Z,100908.00
2022-11-01T00:53:15.717Z,100923.00
2022-11-01T00:55:45.894Z,100952.00
2022-11-01T00:58:16.122Z,100948.00
2022-11-01T01:00:50.634Z,100921.00
2022-11-01T01:03:20.792Z,100923.00
2022-11-01T01:05:53.141Z,100918.00
2022-11-01T01:08:23.916Z,100919.00
2022-11-01T01:10:54.566Z,100931.00
2022-11-01T01:13:25.179Z,100937.00
2022-11-01T01:15:57.980Z,100943.00
2022-11-01T01:18:28.094Z,100941.00
2022-11-01T01:21:04.003Z,100935.00
2022-11-01T01:23:34.615Z,100932.00
2022-11-01T01:26:09.893Z,100926.00
2022-11-01T01:28:44.594Z,100924.00
2022-11-01T01:31:17.542Z,100911.00
2022-11-01T01:33:47.614Z,100917.00
2022-11-01T01:36:17.738Z,100903.00
2022-11-01T01:38:47.977Z,100898.00
2022-11-01T01:41:30.654Z,100886.00
2022-11-01T01:44:00.764Z,100877.00
2022-11-01T01:46:33.638Z,100866.00
2022-11-01T01:49:03.916Z,100850.00
2022-11-01T01:51:34.076Z,100849.00
2022-11-01T01:54:04.276Z,100839.00
2022-11-01T01:56:39.856Z,100818.00
2022-11-01T01:59:12.338Z,100832.00
2022-11-01T02:01:45.407Z,100870.00
2022-11-01T02:04:25.050Z,100875.00
2022-11-01T02:06:55.245Z,100882.00
2022-11-01T02:09:28.148Z,100877.00
2022-11-01T02:12:01.504Z,100872.00
2022-11-01T02:14:32.871Z,100864.00
2022-11-01T02:17:12.924Z,100864.00
2022-11-01T02:20:21.078Z,100868.00
2022-11-01T02:23:36.069Z,100868.00
2022-11-01T02:26:42.803Z,100831.00
2022-11-01T02:29:35.319Z,100836.00
2022-11-01T02:32:20.781Z,100836.00
2022-11-01T02:34:59.841Z,100817.00
2022-11-01T02:37:36.285Z,100829.00
2022-11-01T02:40:12.559Z,100821.00
2022-11-01T02:42:47.446Z,100830.00
2022-11-01T02:45:30.465Z,100813.00
2022-11-01T02:48:05.624Z,100804.00
2022-11-01T02:50:41.980Z,100808.00
2022-11-01T02:53:12.412Z,100808.00
2022-11-01T02:58:19.367Z,100813.00
2022-11-01T03:00:49.728Z,100813.00
2022-11-01T03:03:26.865Z,100811.00
2022-11-01T03:06:07.372Z,100803.00
2022-11-01T03:08:43.048Z,100802.00
2022-11-01T03:11:16.742Z,100800.00
2022-11-01T03:14:03.292Z,100801.00
2022-11-01T03:16:37.776Z,100797.00
2022-11-01T03:19:27.630Z,100798.00
2022-11-01T03:22:06.942Z,100798.00
2022-11-01T03:24:45.858Z,100801.00
2022-11-01T03:27:22.851Z,100804.00
2022-11-01T03:30:03.606Z,100816.00
2022-11-01T03:32:41.265Z,100808.00
2022-11-01T03:35:20.998Z,100809.00
2022-11-01T03:37:56.847Z,100811.00
2022-11-01T03:40:29.719Z,100819.00
2022-11-01T03:43:06.864Z,100820.00
2022-11-01T03:45:41.272Z,100830.00
2022-11-01T03:48:11.679Z,100844.00
2022-11-01T03:50:50.484Z,100836.00
2022-11-01T03:53:21.317Z,100827.00
2022-11-01T03:55:51.503Z,100819.00
2022-11-01T03:58:21.693Z,100815.00
2022-11-01T04:00:52.116Z,100823.00
2022-11-01T04:03:22.273Z,100810.00
2022-11-01T04:05:55.002Z,100812.00
2022-11-01T04:08:25.172Z,100805.00
2022-11-01T04:10:55.326Z,100799.00
2022-11-01T04:13:25.778Z,100798.00
2022-11-01T04:16:08.398Z,100797.00
2022-11-01T04:18:51.398Z,100806.00
2022-11-01T04:21:27.988Z,100801.00
2022-11-01T04:23:58.422Z,100795.00
2022-11-01T04:26:28.849Z,100798.00
2022-11-01T04:29:02.112Z,100794.00
2022-11-01T04:31:34.818Z,100797.00
2022-11-01T04:34:06.407Z,100791.00
2022-11-01T04:36:40.849Z,100794.00
2022-11-01T04:39:12.770Z,100798.00
2022-11-01T04:41:43.599Z,100811.00
2022-11-01T04:44:13.753Z,100811.00
2022-11-01T04:46:44.111Z,100810.00
2022-11-01T04:49:14.589Z,100808.00
2022-11-01T04:51:47.291Z,100803.00
2022-11-01T04:54:17.779Z,100803.00
2022-11-01T04:56:48.331Z,100801.00
2022-11-01T04:59:18.601Z,100792.00
2022-11-01T05:01:48.905Z,100788.00
2022-11-01T05:04:19.534Z,100798.00
2022-11-01T05:06:52.549Z,100793.00
2022-11-01T05:09:22.835Z,100777.00
2022-11-01T05:11:53.354Z,100780.00
2022-11-01T05:14:23.824Z,100782.00
2022-11-01T05:16:54.017Z,100783.00
2022-11-01T05:19:24.270Z,100781.00
2022-11-01T05:21:58.124Z,100769.00
2022-11-01T05:24:28.322Z,100779.00
2022-11-01T05:26:59.687Z,100764.00
2022-11-01T05:29:33.620Z,100765.00
2022-11-01T05:32:04.230Z,100764.00
2022-11-01T05:34:34.636Z,100764.00
2022-11-01T05:37:07.545Z,100756.00
2022-11-01T05:39:37.699Z,100777.00
2022-11-01T05:42:08.237Z,100768.00
2022-11-01T05:44:38.694Z,100772.00
2022-11-01T05:47:11.154Z,100772.00
2022-11-01T05:49:43.357Z,100771.00
2022-11-01T05:52:16.178Z,100759.00
2022-11-01T05:54:46.370Z,100755.00
2022-11-01T05:57:16.526Z,100777.00
2022-11-01T05:59:46.967Z,100773.00
2022-11-01T06:02:17.206Z,100777.00
2022-11-01T06:04:47.532Z,100774.00
2022-11-01T06:07:20.630Z,100777.00
2022-11-01T06:09:50.803Z,100762.00
2022-11-01T06:12:21.302Z,100777.00
2022-11-01T06:14:51.739Z,100772.00
2022-11-01T06:17:22.419Z,100774.00
2022-11-01T06:19:52.691Z,100768.00
2022-11-01T06:22:25.635Z,100776.00
2022-11-01T06:24:56.089Z,100782.00
2022-11-01T06:27:26.522Z,100779.00
2022-11-01T06:29:57.064Z,100786.00
2022-11-01T06:32:27.610Z,100778.00
2022-11-01T06:34:57.866Z,100782.00
2022-11-01T06:37:30.744Z,100779.00
2022-11-01T06:40:00.831Z,100772.00
2022-11-01T06:42:31.160Z,100766.00
2022-11-01T06:45:03.550Z,100767.00
2022-11-01T06:47:33.884Z,100749.00
2022-11-01T06:50:04.182Z,100748.00
2022-11-01T06:52:37.114Z,100752.00
2022-11-01T06:55:08.543Z,100754.00
2022-11-01T06:57:39.049Z,100766.00
2022-11-01T07:00:12.023Z,100775.00
2022-11-01T07:02:42.444Z,100787.00
2022-11-01T07:05:13.003Z,100797.00
2022-11-01T07:07:45.982Z,100791.00
2022-11-01T07:10:16.126Z,100785.00
2022-11-01T07:12:46.436Z,100779.00
2022-11-01T07:15:16.870Z,100764.00
2022-11-01T07:17:48.268Z,100774.00
2022-11-01T07:20:18.894Z,100781.00
2022-11-01T07:23:00.282Z,100790.00
2022-11-01T07:25:32.228Z,100815.00
2022-11-01T07:28:02.831Z,100810.00
2022-11-01T07:30:33.309Z,100803.00
2022-11-01T07:33:06.699Z,100804.00
2022-11-01T07:35:38.398Z,100813.00
2022-11-01T07:38:16.292Z,100821.00
2022-11-01T07:40:49.828Z,100831.00
2022-11-01T07:43:20.813Z,100825.00
2022-11-01T07:45:51.757Z,100814.00
2022-11-01T07:48:23.526Z,100832.00
2022-11-01T07:50:53.783Z,100816.00
2022-11-01T07:53:27.470Z,100826.00
2022-11-01T07:55:58.010Z,100814.00
2022-11-01T07:58:28.450Z,100832.00
2022-11-01T08:00:59.045Z,100846.00
2022-11-01T08:03:31.098Z,100850.00
2022-11-01T08:06:01.360Z,100845.00
2022-11-01T08:08:34.378Z,100844.00
2022-11-01T08:11:05.102Z,100839.00
2022-11-01T08:13:35.773Z,100856.00
2022-11-01T08:16:06.325Z,100863.00
2022-11-01T08:18:36.860Z,100871.00
2022-11-01T08:21:07.823Z,100873.00
2022-11-01T08:23:40.720Z,100867.00
2022-11-01T08:26:11.461Z,100882.00
2022-11-01T08:28:41.952Z,100886.00
2022-11-01T08:31:13.827Z,100883.00
2022-11-01T08:33:44.205Z,100872.00
2022-11-01T08:36:14.888Z,100881.00
2022-11-01T08:38:47.970Z,100881.00
2022-11-01T08:41:18.510Z,100878.00
2022-11-01T08:43:48.763Z,100874.00
2022-11-01T08:46:19.244Z,100877.00
2022-11-01T08:48:52.547Z,100871.00
2022-11-01T08:51:26.100Z,100866.00
2022-11-01T08:54:01.594Z,100861.00
2022-11-01T08:56:32.319Z,100855.00
2022-11-01T08:59:03.350Z,100864.00
2022-11-01T09:01:34.476Z,100855.00
2022-11-01T09:04:05.215Z,100858.00
2022-11-01T09:06:36.562Z,100866.00
2022-11-01T09:09:10.419Z,100849.00
2022-11-01T09:11:41.109Z,100835.00
2022-11-01T09:14:12.160Z,100855.00
2022-11-01T09:16:43.030Z,100857.00
2022-11-01T09:19:13.270Z,100854.00
2022-11-01T09:21:43.641Z,100852.00
2022-11-01T09:24:19.426Z,100854.00
2022-11-01T09:26:50.527Z,100849.00
2022-11-01T09:29:21.564Z,100845.00
2022-11-01T09:31:54.577Z,100844.00
2022-11-01T09:34:25.447Z,100843.00
2022-11-01T09:36:55.987Z,100839.00
2022-11-01T09:39:29.495Z,100844.00
2022-11-01T09:42:04.584Z,100846.00
2022-11-01T09:44:39.457Z,100837.00
2022-11-01T09:47:16.127Z,100856.00
2022-11-01T09:49:51.132Z,100872.00
2022-11-01T09:52:26.058Z,100876.00
2022-11-01T09:54:59.198Z,100879.00
2022-11-01T09:57:38.118Z,100883.00
2022-11-01T10:00:17.565Z,100897.00
2022-11-01T10:03:20.776Z,100886.00
2022-11-01T10:05:59.595Z,100873.00
2022-11-01T10:08:45.945Z,100876.00
2022-11-01T10:11:41.442Z,100893.00
2022-11-01T10:14:29.441Z,100889.00
2022-11-01T10:17:16.298Z,100888.00
2022-11-01T10:19:50.971Z,100882.00
2022-11-01T10:22:31.134Z,100893.00
2022-11-01T10:25:05.091Z,100886.00
2022-11-01T10:27:46.154Z,100896.00
2022-11-01T10:30:19.012Z,100880.00
2022-11-01T10:32:53.491Z,100883.00
2022-11-01T10:35:30.742Z,100884.00
2022-11-01T10:38:25.123Z,100879.00
2022-11-01T10:41:06.652Z,100874.00
2022-11-01T10:43:44.728Z,100875.00
2022-11-01T10:46:21.216Z,100876.00
2022-11-01T10:48:55.931Z,100885.00
2022-11-01T10:51:30.260Z,100889.00
2022-11-01T10:54:04.479Z,100885.00
2022-11-01T10:56:41.940Z,100883.00
2022-11-01T10:59:21.583Z,100886.00
2022-11-01T11:01:54.026Z,100882.00
2022-11-01T11:04:26.421Z,100884.00
2022-11-01T11:06:57.104Z,100891.00
2022-11-01T11:09:34.611Z,100895.00
2022-11-01T11:12:11.133Z,100893.00
2022-11-01T11:14:46.174Z,100897.00
2022-11-01T11:17:25.132Z,100907.00
2022-11-01T11:19:56.478Z,100908.00
2022-11-01T11:22:27.008Z,100902.00
2022-11-01T11:25:01.808Z,100896.00
2022-11-01T11:27:34.606Z,100905.00
2022-11-01T11:30:16.165Z,100898.00
2022-11-01T11:32:50.818Z,100908.00
2022-11-01T11:35:24.392Z,100892.00
2022-11-01T11:38:00.886Z,100906.00
2022-11-01T11:40:45.858Z,100913.00
2022-11-01T11:43:26.320Z,100911.00
2022-11-01T11:46:15.345Z,100915.00
2022-11-01T11:48:52.595Z,100919.00
2022-11-01T11:51:24.936Z,100926.00
2022-11-01T11:54:23.851Z,100921.00
2022-11-01T11:56:56.334Z,100914.00
2022-11-01T11:59:32.495Z,100920.00
2022-11-01T12:02:12.089Z,100921.00
2022-11-01T12:04:52.997Z,100918.00
2022-11-01T12:07:33.400Z,100922.00
2022-11-01T12:10:07.056Z,100921.00
2022-11-01T12:12:42.835Z,100934.00
2022-11-01T12:15:32.115Z,100926.00
2022-11-01T12:18:18.386Z,100934.00
2022-11-01T12:20:54.371Z,100937.00
2022-11-01T12:23:33.514Z,100932.00
2022-11-01T12:26:13.871Z,100931.00
2022-11-01T12:28:51.328Z,100933.00
2022-11-01T12:31:28.823Z,100934.00
2022-11-01T12:34:13.560Z,100933.00
2022-11-01T12:36:49.150Z,100930.00
2022-11-01T12:39:37.116Z,100932.00
2022-11-01T12:42:08.260Z,100935.00
2022-11-01T12:44:41.183Z,100938.00
2022-11-01T12:47:19.731Z,100937.00
2022-11-01T12:49:59.238Z,100931.00
2022-11-01T12:52:41.005Z,100943.00
2022-11-01T12:55:30.384Z,100939.00
2022-11-01T12:58:01.121Z,100941.00
2022-11-01T13:00:47.694Z,100944.00
2022-11-01T13:03:31.927Z,100959.00
2022-11-01T13:06:21.720Z,100958.00
2022-11-01T13:09:01.692Z,100947.00
2022-11-01T13:11:38.797Z,100956.00
2022-11-01T13:14:38.282Z,100954.00
2022-11-01T13:17:19.073Z,100962.00
2022-11-01T13:19:58.007Z,100965.00
2022-11-01T13:22:40.502Z,100959.00
2022-11-01T13:25:20.775Z,100961.00
2022-11-01T13:28:04.503Z,100972.00
2022-11-01T13:30:39.259Z,100966.00
2022-11-01T13:33:19.579Z,100964.00
2022-11-01T13:35:58.976Z,100962.00
2022-11-01T13:38:41.315Z,100955.00
2022-11-01T13:41:20.299Z,100953.00
2022-11-01T13:43:56.553Z,100962.00
2022-11-01T13:47:09.046Z,100956.00
2022-11-01T13:50:27.657Z,100952.00
2022-11-01T13:53:03.633Z,100957.00
2022-11-01T13:55:43.936Z,100968.00
2022-11-01T13:58:20.951Z,100977.00
2022-11-01T14:00:54.586Z,100962.00
2022-11-01T14:03:32.659Z,100966.00
2022-11-01T14:06:31.614Z,100963.00
2022-11-01T14:09:44.216Z,100970.00
2022-11-01T14:12:39.564Z,100973.00
2022-11-01T14:15:25.910Z,100965.00
2022-11-01T14:18:10.135Z,100960.00
2022-11-01T14:20:47.099Z,100974.00
2022-11-01T14:24:01.958Z,100972.00
2022-11-01T14:26:51.109Z,100971.00
2022-11-01T14:29:24.110Z,100975.00
2022-11-01T14:31:56.929Z,100978.00
2022-11-01T14:34:39.581Z,100983.00
2022-11-01T14:37:22.975Z,100983.00
2022-11-01T14:40:04.268Z,100981.00
2022-11-01T14:42:45.150Z,100990.00
2022-11-01T14:45:38.446Z,100994.00
2022-11-01T14:48:18.877Z,100990.00
2022-11-01T14:51:01.023Z,100998.00
2022-11-01T14:53:37.906Z,101002.00
2022-11-01T14:56:21.261Z,101010.00
2022-11-01T14:58:55.413Z,100996.00
2022-11-01T15:01:28.629Z,100998.00
2022-11-01T15:04:01.178Z,101008.00
2022-11-01T15:06:33.837Z,101012.00
2022-11-01T15:09:05.811Z,101006.00
2022-11-01T15:11:38.319Z,101004.00
2022-11-01T15:14:11.218Z,101011.00
2022-11-01T15:16:46.500Z,101023.00
2022-11-01T15:19:27.938Z,101017.00
2022-11-01T15:22:03.449Z,101016.00
2022-11-01T15:24:36.963Z,101017.00
2022-11-01T15:27:09.270Z,101013.00
2022-11-01T15:29:39.929Z,101009.00
2022-11-01T15:32:32.721Z,101015.00
2022-11-01T15:35:06.462Z,101004.00
2022-11-01T15:37:36.998Z,101025.00
2022-11-01T15:40:30.895Z,101018.00
2022-11-01T15:43:03.038Z,101014.00
2022-11-01T15:45:36.480Z,101016.00
2022-11-01T15:48:12.878Z,101019.00
2022-11-01T15:50:49.846Z,101019.00
2022-11-01T15:53:27.921Z,101028.00
2022-11-01T15:56:07.422Z,101028.00
2022-11-01T15:58:44.011Z,101021.00
2022-11-01T16:01:19.916Z,101034.00
2022-11-01T16:03:59.310Z,101035.00
2022-11-01T16:06:36.455Z,101030.00
2022-11-01T16:09:10.417Z,101036.00
2022-11-01T16:11:41.676Z,101038.00
2022-11-01T16:14:25.720Z,101029.00
2022-11-01T16:17:01.410Z,101037.00
2022-11-01T16:19:42.705Z,101034.00
2022-11-01T16:22:33.718Z,101037.00
2022-11-01T16:25:16.715Z,101047.00
2022-11-01T16:28:04.532Z,101045.00
2022-11-01T16:30:39.041Z,101055.00
2022-11-01T16:33:23.591Z,101066.00
2022-11-01T16:35:58.411Z,101071.00
2022-11-01T16:38:43.520Z,101061.00
2022-11-01T16:41:23.258Z,101058.00
2022-11-01T16:43:58.731Z,101069.00
2022-11-01T16:46:31.941Z,101063.00
2022-11-01T16:49:05.816Z,101069.00
2022-11-01T16:51:38.899Z,101083.00
2022-11-01T16:54:12.326Z,101076.00
2022-11-01T16:56:48.301Z,101077.00
2022-11-01T16:59:33.946Z,101082.00
2022-11-01T17:02:06.447Z,101079.00
2022-11-01T17:04:37.250Z,101085.00
2022-11-01T17:07:13.389Z,101085.00
2022-11-01T17:09:43.832Z,101080.00
2022-11-01T17:12:14.623Z,101086.00
2022-11-01T17:14:46.012Z,101095.00
2022-11-01T17:17:22.384Z,101096.00
2022-11-01T17:19:59.674Z,101095.00
2022-11-01T17:22:39.101Z,101096.00
2022-11-01T17:25:11.007Z,101108.00
2022-11-01T17:27:41.520Z,101108.00
2022-11-01T17:30:13.354Z,101107.00
2022-11-01T17:32:44.147Z,101106.00
2022-11-01T17:35:15.404Z,101114.00
2022-11-01T17:37:48.622Z,101109.00
2022-11-01T17:40:22.868Z,101109.00
2022-11-01T17:42:53.417Z,101116.00
2022-11-01T17:45:24.225Z,101123.00
2022-11-01T17:47:58.134Z,101121.00
2022-11-01T17:50:28.511Z,101123.00
2022-11-01T17:53:01.775Z,101120.00
2022-11-01T17:55:32.557Z,101128.00
2022-11-01T17:58:03.215Z,101130.00
2022-11-01T18:00:33.974Z,101134.00
2022-11-01T18:03:04.993Z,101144.00
2022-11-01T18:05:36.087Z,101138.00
2022-11-01T18:08:19.676Z,101139.00
2022-11-01T18:11:01.663Z,101146.00
2022-11-01T18:13:44.840Z,101145.00
2022-11-01T18:16:30.925Z,101148.00
2022-11-01T18:19:28.492Z,101150.00
2022-11-01T18:22:09.714Z,101151.00
2022-11-01T18:24:49.426Z,101152.00
2022-11-01T18:27:26.694Z,101143.00
2022-11-01T18:29:56.992Z,101155.00
2022-11-01T18:32:35.133Z,101162.00
2022-11-01T18:35:30.610Z,101154.00
2022-11-01T18:38:18.810Z,101164.00
2022-11-01T18:41:01.188Z,101164.00
2022-11-01T18:43:35.414Z,101160.00
2022-11-01T18:49:00.900Z,101162.00
2022-11-01T18:51:33.911Z,101159.00
2022-11-01T18:54:26.152Z,101160.00
2022-11-01T18:57:01.345Z,101162.00
2022-11-01T18:59:35.706Z,101168.00
2022-11-01T19:02:16.042Z,101168.00
2022-11-01T19:04:47.436Z,101170.00
2022-11-01T19:07:20.352Z,101168.00
2022-11-01T19:09:56.526Z,101175.00
2022-11-01T19:12:32.391Z,101175.00
2022-11-01T19:15:11.632Z,101172.00
2022-11-01T19:17:45.138Z,101173.00
2022-11-01T19:20:27.889Z,101174.00
2022-11-01T19:23:01.104Z,101178.00
2022-11-01T19:25:34.219Z,101180.00
2022-11-01T19:28:15.405Z,101177.00
2022-11-01T19:30:54.931Z,101184.00
2022-11-01T19:33:37.649Z,101180.00
2022-11-01T19:36:16.450Z,101185.00
2022-11-01T19:38:46.682Z,101185.00
2022-11-01T19:41:21.402Z,101186.00
2022-11-01T19:43:54.928Z,101201.00
2022-11-01T19:46:25.152Z,101195.00
2022-11-01T19:48:56.315Z,101182.00
2022-11-01T19:51:27.138Z,101192.00
2022-11-01T19:53:57.271Z,101190.00
2022-11-01T19:56:29.916Z,101196.00
2022-11-01T19:59:04.898Z,101191.00
2022-11-01T20:01:42.924Z,101193.00
2022-11-01T20:04:29.169Z,101194.00
2022-11-01T20:07:03.989Z,101188.00
2022-11-01T20:09:38.966Z,101196.00
2022-11-01T20:12:11.375Z,101198.00
2022-11-01T20:14:44.095Z,101203.00
2022-11-01T20:17:14.277Z,101204.00
2022-11-01T20:19:45.333Z,101206.00
2022-11-01T20:22:15.430Z,101194.00
2022-11-01T20:24:46.199Z,101207.00
2022-11-01T20:27:16.535Z,101212.00
2022-11-01T20:29:49.462Z,101211.00
2022-11-01T20:32:19.594Z,101213.00
2022-11-01T20:34:50.775Z,101215.00
2022-11-01T20:37:28.921Z,101211.00
2022-11-01T20:39:59.672Z,101213.00
2022-11-01T20:42:29.835Z,101214.00
2022-11-01T20:45:02.707Z,101211.00
2022-11-01T20:47:32.896Z,101215.00
2022-11-01T20:50:06.807Z,101216.00
2022-11-01T20:52:40.427Z,101221.00
2022-11-01T20:55:13.039Z,101215.00
2022-11-01T20:57:43.643Z,101221.00
2022-11-01T21:00:18.555Z,101223.00
2022-11-01T21:02:49.521Z,101230.00
2022-11-01T21:05:25.674Z,101229.00
2022-11-01T21:08:08.180Z,101226.00
2022-11-01T21:10:43.023Z,101230.00
2022-11-01T21:13:33.278Z,101219.00
2022-11-01T21:16:10.746Z,101225.00
2022-11-01T21:18:44.498Z,101224.00
2022-11-01T21:21:47.187Z,101220.00
2022-11-01T21:24:34.687Z,101225.00
2022-11-01T21:30:22.948Z,101220.00
2022-11-01T21:32:55.673Z,101217.00
2022-11-01T21:35:41.368Z,101217.00
2022-11-01T21:38:42.666Z,101216.00
2022-11-01T21:41:34.716Z,101223.00
2022-11-01T21:44:28.719Z,101217.00
2022-11-01T21:47:04.051Z,101216.00
2022-11-01T21:49:36.941Z,101221.00
2022-11-01T21:54:46.370Z,101209.00
2022-11-01T21:57:18.369Z,101199.00
2022-11-01T21:59:48.640Z,101200.00
2022-11-01T22:02:19.221Z,101195.00
2022-11-01T22:04:52.003Z,101200.00
2022-11-01T22:07:22.296Z,101194.00
2022-11-01T22:09:52.447Z,101199.00
2022-11-01T22:12:22.597Z,101202.00
2022-11-01T22:14:52.685Z,101192.00
2022-11-01T22:17:22.842Z,101193.00
2022-11-01T22:19:55.650Z,101197.00
2022-11-01T22:22:25.810Z,101202.00
2022-11-01T22:24:55.911Z,101204.00
2022-11-01T22:27:26.119Z,101201.00
2022-11-01T22:29:56.274Z,101209.00
2022-11-01T22:32:26.831Z,101206.00
2022-11-01T22:34:59.633Z,101203.00
2022-11-01T22:37:30.215Z,101205.00
2022-11-01T22:40:00.244Z,101209.00
2022-11-01T22:42:30.478Z,101210.00
2022-11-01T22:45:00.617Z,101206.00
2022-11-01T22:47:31.837Z,101210.00
2022-11-01T22:50:06.266Z,101207.00
2022-11-01T22:52:41.344Z,101209.00
2022-11-01T22:55:26.312Z,101213.00
2022-11-01T22:57:58.321Z,101218.00
2022-11-01T23:00:33.684Z,101218.00
2022-11-01T23:03:16.039Z,101210.00
2022-11-01T23:05:49.647Z,101209.00
2022-11-01T23:08:29.680Z,101208.00
2022-11-01T23:11:00.863Z,101212.00
2022-11-01T23:13:47.122Z,101216.00
2022-11-01T23:16:27.138Z,101205.00
2022-11-01T23:19:00.212Z,101204.00
2022-11-01T23:21:33.185Z,101210.00
2022-11-01T23:24:04.235Z,101213.00
2022-11-01T23:26:34.530Z,101205.00
2022-11-01T23:29:05.587Z,101199.00
2022-11-01T23:31:35.789Z,101202.00
2022-11-01T23:34:06.066Z,101207.00
2022-11-01T23:36:40.817Z,101215.00
2022-11-01T23:39:15.261Z,101213.00
2022-11-01T23:41:47.791Z,101226.00
2022-11-01T23:44:27.403Z,101216.00
2022-11-01T23:47:04.745Z,101209.00
2022-11-01T23:49:37.718Z,101208.00
2022-11-01T23:52:27.590Z,101208.00
2022-11-01T23:54:57.795Z,101206.00
2022-11-01T23:57:28.174Z,101199.00
2022-11-01T23:59:59.164Z,101206.00
